YCC weather

Cornwall Regional Airport
Cornwall, Ontario, Canada

Public forecast

Using degrees Celsius for public forecast. Weather courtesy of forecast.io.

METAR (pilot weather report)

Closest report is Massena International Richards Field, 15.2 nm (28.2 km) SW. Retrieved 2019/03/22 04:53 UTC (56 minutes ago):

KMSS 220453Z AUTO 18003KT 10SM SCT035 BKN042 OVC049 04/04 A2974 RMK AO2 RAE45 SLP073 P0000 T00390039 400831028

TAF (pilot weather forecast)

Forecast is more than 12 hours old.

Closest forecast is Massena International Richards Field, 15.2 nm (28.2 km) SW. Retrieved 2019/03/21 00:33 UTC (1 day ago):

TAF KMSS 212331Z 2200/2224 VRB03KT P6SM OVC040 FM220900 10003KT 4SM -RA BR OVC013 FM221100 00000KT 1 1/2SM -RASN BR OVC008 FM221400 35005KT 1SM -SN BR OVC006 FM222100 32013G22KT 1 1/2SM -SN BR OVC007